createdAt,value
2023-02-12T00:01:10.243Z,98385.56
2023-02-12T00:03:38.356Z,98373.66
2023-02-12T00:06:07.022Z,98387.59
2023-02-12T00:08:34.589Z,98392.53
2023-02-12T00:11:08.250Z,98402.63
2023-02-12T00:13:35.405Z,98394.72
2023-02-12T00:16:11.105Z,98389.97
2023-02-12T00:18:38.841Z,98418.34
2023-02-12T00:21:09.076Z,98410.09
2023-02-12T00:23:38.131Z,98418.16
2023-02-12T00:26:07.714Z,98405.84
2023-02-12T00:28:35.537Z,98423.69
2023-02-12T00:31:17.953Z,98420.94
2023-02-12T00:33:45.210Z,98438.75
2023-02-12T00:36:17.463Z,98455.78
2023-02-12T00:38:45.157Z,98452.63
2023-02-12T00:41:12.785Z,98464.41
2023-02-12T00:43:40.301Z,98467.47
2023-02-12T00:46:08.239Z,98475.13
2023-02-12T00:48:36.811Z,98483.16
2023-02-12T00:51:04.749Z,98474.97
2023-02-12T00:53:32.385Z,98490.94
2023-02-12T00:56:00.364Z,98506.03
2023-02-12T00:58:27.744Z,98506.28
2023-02-12T01:00:55.150Z,98518.59
2023-02-12T01:03:23.892Z,98518.84
2023-02-12T01:05:53.479Z,98529.13
2023-02-12T01:08:21.786Z,98535.03
2023-02-12T01:10:56.902Z,98546.41
2023-02-12T01:13:25.742Z,98538.41
2023-02-12T01:16:09.102Z,98551.91
2023-02-12T01:18:37.451Z,98570.88
2023-02-12T01:21:17.703Z,98568.66
2023-02-12T01:23:45.598Z,98578.19
2023-02-12T01:26:13.544Z,98591.34
2023-02-12T01:28:43.045Z,98601.38
2023-02-12T01:31:19.199Z,98612.28
2023-02-12T01:33:50.929Z,98610.63
2023-02-12T01:36:18.369Z,98614.88
2023-02-12T01:38:46.748Z,98625.25
2023-02-12T01:41:17.457Z,98637.25
2023-02-12T01:43:46.583Z,98631.13
2023-02-12T01:46:15.245Z,98653.22
2023-02-12T01:48:45.431Z,98664.06
2023-02-12T01:51:16.670Z,98659.19
2023-02-12T01:53:51.406Z,98659.22
2023-02-12T01:56:19.570Z,98671.56
2023-02-12T01:58:48.691Z,98677.38
2023-02-12T02:01:22.852Z,98687.50
2023-02-12T02:03:54.370Z,98697.22
2023-02-12T02:06:48.204Z,98675.00
2023-02-12T02:09:17.674Z,98707.72
2023-02-12T02:12:03.177Z,98714.50
2023-02-12T02:14:33.065Z,98733.78
2023-02-12T02:17:17.775Z,98729.22
2023-02-12T02:20:02.736Z,98749.25
2023-02-12T02:23:00.670Z,98749.66
2023-02-12T02:25:46.426Z,98766.16
2023-02-12T02:28:22.616Z,98771.06
2023-02-12T02:31:31.486Z,98778.75
2023-02-12T02:34:29.213Z,98790.88
2023-02-12T02:37:14.016Z,98791.53
2023-02-12T02:39:49.126Z,98804.59
2023-02-12T02:42:23.903Z,98798.13
2023-02-12T02:45:18.265Z,98817.84
2023-02-12T02:47:52.673Z,98816.94
2023-02-12T02:50:24.086Z,98813.13
2023-02-12T02:52:56.908Z,98834.41
2023-02-12T02:55:27.779Z,98828.03
2023-02-12T02:57:59.992Z,98841.66
2023-02-12T03:00:39.019Z,98846.69
2023-02-12T03:03:15.620Z,98858.97
2023-02-12T03:05:49.838Z,98862.91
2023-02-12T03:08:28.719Z,98864.38
2023-02-12T03:11:05.414Z,98881.63
2023-02-12T03:13:43.734Z,98887.94
2023-02-12T03:16:39.902Z,98870.19
2023-02-12T03:19:36.618Z,98896.78
2023-02-12T03:22:12.490Z,98898.31
2023-02-12T03:24:48.888Z,98907.00
2023-02-12T03:27:38.032Z,98922.03
2023-02-12T03:30:06.180Z,98938.00
2023-02-12T03:32:52.030Z,98931.25
2023-02-12T03:35:27.975Z,98941.09
2023-02-12T03:38:07.054Z,98953.28
2023-02-12T03:40:38.582Z,98966.72
2023-02-12T03:43:25.473Z,98960.00
2023-02-12T03:45:52.532Z,98966.31
2023-02-12T03:48:57.970Z,98971.47
2023-02-12T03:51:43.615Z,98980.16
2023-02-12T03:54:13.896Z,98985.53
2023-02-12T03:56:52.264Z,98989.22
2023-02-12T03:59:21.332Z,99000.41
2023-02-12T04:01:52.040Z,99000.13
2023-02-12T04:04:19.871Z,98994.25
2023-02-12T04:06:49.426Z,99013.38
2023-02-12T04:09:17.730Z,99019.00
2023-02-12T04:12:13.819Z,99021.25
2023-02-12T04:14:50.330Z,99031.59
2023-02-12T04:17:40.418Z,99036.53
2023-02-12T04:20:47.830Z,99042.56
2023-02-12T04:23:18.157Z,99057.81
2023-02-12T04:26:04.673Z,99060.78
2023-02-12T04:28:56.281Z,99060.88
2023-02-12T04:31:41.764Z,99073.34
2023-02-12T04:34:53.402Z,99076.28
2023-02-12T04:37:29.384Z,99060.31
2023-02-12T04:39:57.385Z,99099.91
2023-02-12T04:42:24.716Z,99105.66
2023-02-12T04:44:51.918Z,99111.41
2023-02-12T04:47:18.955Z,99116.06
2023-02-12T04:49:46.016Z,99110.66
2023-02-12T04:52:13.149Z,99100.56
2023-02-12T04:54:40.208Z,99129.47
2023-02-12T04:57:07.316Z,99137.22
2023-02-12T04:59:34.377Z,99134.63
2023-02-12T05:02:01.504Z,99148.22
2023-02-12T05:04:28.623Z,99135.38
2023-02-12T05:06:55.662Z,99150.88
2023-02-12T05:09:22.830Z,99158.59
2023-02-12T05:11:49.959Z,99148.81
2023-02-12T05:14:17.394Z,99166.53
2023-02-12T05:16:44.484Z,99168.38
2023-02-12T05:19:14.644Z,99189.94
2023-02-12T05:21:42.671Z,99186.72
2023-02-12T05:24:09.785Z,99204.16
2023-02-12T05:26:37.263Z,99220.84
2023-02-12T05:29:04.363Z,99208.94
2023-02-12T05:31:31.567Z,99210.19
2023-02-12T05:33:58.906Z,99235.56
2023-02-12T05:36:26.391Z,99236.41
2023-02-12T05:38:57.156Z,99253.66
2023-02-12T05:41:25.156Z,99238.25
2023-02-12T05:43:53.024Z,99237.69
2023-02-12T05:46:21.558Z,99258.53
2023-02-12T05:48:48.946Z,99261.25
2023-02-12T05:51:21.882Z,99258.69
2023-02-12T05:53:51.016Z,99273.38
2023-02-12T05:56:21.544Z,99280.81
2023-02-12T05:58:54.662Z,99273.84
2023-02-12T06:01:24.670Z,99295.44
2023-02-12T06:03:51.794Z,99288.22
2023-02-12T06:06:18.950Z,99312.38
2023-02-12T06:08:49.288Z,99299.19
2023-02-12T06:11:17.676Z,99264.63
2023-02-12T06:13:45.007Z,99307.41
2023-02-12T06:16:19.736Z,99312.59
2023-02-12T06:18:47.647Z,99319.97
2023-02-12T06:21:15.556Z,99330.72
2023-02-12T06:23:42.998Z,99342.06
2023-02-12T06:26:10.599Z,99347.97
2023-02-12T06:28:37.781Z,99354.50
2023-02-12T06:31:05.467Z,99370.66
2023-02-12T06:33:33.164Z,99381.44
2023-02-12T06:36:03.956Z,99388.91
2023-02-12T06:38:31.012Z,99377.34
2023-02-12T06:41:02.162Z,99401.56
2023-02-12T06:43:29.488Z,99383.94
2023-02-12T06:45:57.328Z,99413.28
2023-02-12T06:48:24.682Z,99425.06
2023-02-12T06:50:51.737Z,99423.91
2023-02-12T06:53:18.823Z,99425.56
2023-02-12T06:55:45.868Z,99419.69
2023-02-12T06:58:12.949Z,99430.84
2023-02-12T07:00:41.231Z,99435.25
2023-02-12T07:03:08.316Z,99441.19
2023-02-12T07:05:38.012Z,99434.72
2023-02-12T07:08:05.099Z,99444.38
2023-02-12T07:10:32.164Z,99449.66
2023-02-12T07:12:59.245Z,99464.22
2023-02-12T07:15:26.391Z,99470.66
2023-02-12T07:17:53.431Z,99486.00
2023-02-12T07:20:20.654Z,99475.84
2023-02-12T07:22:47.732Z,99490.50
2023-02-12T07:25:14.942Z,99488.69
2023-02-12T07:27:42.051Z,99485.78
2023-02-12T07:30:09.609Z,99491.03
2023-02-12T07:32:36.738Z,99496.66
2023-02-12T07:35:03.882Z,99506.16
2023-02-12T07:37:31.154Z,99513.31
2023-02-12T07:39:58.260Z,99507.34
2023-02-12T07:42:25.405Z,99518.88
2023-02-12T07:44:52.801Z,99536.44
2023-02-12T07:47:19.922Z,99512.06
2023-02-12T07:49:46.995Z,99518.75
2023-02-12T07:52:14.128Z,99529.34
2023-02-12T07:54:41.211Z,99530.25
2023-02-12T07:57:08.330Z,99532.16
2023-02-12T07:59:35.494Z,99557.09
2023-02-12T08:02:02.705Z,99560.06
2023-02-12T08:04:29.982Z,99549.16
2023-02-12T08:06:57.444Z,99551.06
2023-02-12T08:09:31.008Z,99576.34
2023-02-12T08:11:59.200Z,99574.59
2023-02-12T08:14:26.989Z,99589.91
2023-02-12T08:16:54.121Z,99610.84
2023-02-12T08:19:25.764Z,99600.22
2023-02-12T08:21:55.483Z,99611.72
2023-02-12T08:24:23.348Z,99603.03
2023-02-12T08:26:51.030Z,99610.38
2023-02-12T08:29:21.945Z,99621.66
2023-02-12T08:31:49.763Z,99629.53
2023-02-12T08:34:22.913Z,99624.63
2023-02-12T08:36:51.763Z,99606.22
2023-02-12T08:39:19.049Z,99626.03
2023-02-12T08:41:47.023Z,99631.53
2023-02-12T08:44:15.029Z,99617.78
2023-02-12T08:46:48.057Z,99626.38
2023-02-12T08:49:18.262Z,99644.38
2023-02-12T08:51:48.920Z,99638.84
2023-02-12T08:54:18.851Z,99626.78
2023-02-12T08:56:46.523Z,99632.34
2023-02-12T08:59:15.243Z,99632.31
2023-02-12T09:01:43.775Z,99637.19
2023-02-12T09:04:21.655Z,99647.19
2023-02-12T09:06:50.479Z,99665.28
2023-02-12T09:09:18.086Z,99661.66
2023-02-12T09:11:45.358Z,99656.34
2023-02-12T09:14:15.316Z,99656.50
2023-02-12T09:16:42.724Z,99675.34
2023-02-12T09:19:12.891Z,99672.38
2023-02-12T09:21:40.757Z,99677.84
2023-02-12T09:24:08.345Z,99677.94
2023-02-12T09:26:35.829Z,99677.88
2023-02-12T09:29:05.054Z,99710.78
2023-02-12T09:31:33.559Z,99701.66
2023-02-12T09:34:03.814Z,99705.47
2023-02-12T09:36:31.934Z,99706.00
2023-02-12T09:39:00.004Z,99711.34
2023-02-12T09:42:03.502Z,99707.94
2023-02-12T09:45:33.198Z,99709.78
2023-02-12T09:48:05.624Z,99717.09
2023-02-12T09:50:44.562Z,99714.13
2023-02-12T09:53:20.609Z,99718.72
2023-02-12T09:55:48.115Z,99709.31
2023-02-12T09:58:23.762Z,99735.16
2023-02-12T10:00:50.844Z,99732.00
2023-02-12T10:03:18.908Z,99729.19
2023-02-12T10:05:51.474Z,99724.22
2023-02-12T10:08:42.386Z,99747.16
2023-02-12T10:11:46.782Z,99747.03
2023-02-12T10:14:19.518Z,99747.50
2023-02-12T10:17:15.180Z,99746.06
2023-02-12T10:20:06.735Z,99751.88
2023-02-12T10:23:21.270Z,99760.34
2023-02-12T10:25:58.474Z,99765.22
2023-02-12T10:28:38.972Z,99767.84
2023-02-12T10:31:13.184Z,99778.63
2023-02-12T10:33:49.041Z,99783.25
2023-02-12T10:36:37.708Z,99778.84
2023-02-12T10:39:15.951Z,99769.94
2023-02-12T10:41:58.170Z,99785.28
2023-02-12T10:44:26.234Z,99795.31
2023-02-12T10:46:53.623Z,99781.09
2023-02-12T10:49:21.790Z,99791.09
2023-02-12T10:52:02.468Z,99799.97
2023-02-12T10:54:41.095Z,99799.94
2023-02-12T10:57:15.925Z,99803.41
2023-02-12T10:59:45.224Z,99793.66
2023-02-12T11:02:18.870Z,99798.38
2023-02-12T11:04:46.023Z,99809.88
2023-02-12T11:07:13.203Z,99810.56
2023-02-12T11:09:48.721Z,99815.72
2023-02-12T11:12:39.914Z,99819.72
2023-02-12T11:15:13.572Z,99834.06
2023-02-12T11:17:43.619Z,99832.28
2023-02-12T11:20:16.762Z,99828.50
2023-02-12T11:22:58.999Z,99832.94
2023-02-12T11:25:33.035Z,99838.94
2023-02-12T11:28:03.988Z,99842.19
2023-02-12T11:30:31.431Z,99853.06
2023-02-12T11:33:22.057Z,99837.56
2023-02-12T11:36:26.685Z,99842.41
2023-02-12T11:38:56.849Z,99850.53
2023-02-12T11:41:36.664Z,99865.38
2023-02-12T11:44:18.433Z,99855.94
2023-02-12T11:46:51.059Z,99861.28
2023-02-12T11:49:25.337Z,99873.88
2023-02-12T11:51:53.886Z,99874.66
2023-02-12T11:54:25.181Z,99884.41
2023-02-12T11:56:52.550Z,99882.00
2023-02-12T11:59:37.558Z,99894.97
2023-02-12T12:02:14.458Z,99880.72
2023-02-12T12:04:43.811Z,99910.13
2023-02-12T12:07:22.925Z,99907.75
2023-02-12T12:09:58.662Z,99921.56
2023-02-12T12:12:48.802Z,99919.88
2023-02-12T12:15:49.258Z,99907.41
2023-02-12T12:18:58.110Z,99921.81
2023-02-12T12:21:48.734Z,99917.84
2023-02-12T12:24:41.693Z,99932.19
2023-02-12T12:27:39.042Z,99919.44
2023-02-12T12:30:16.565Z,99943.13
2023-02-12T12:32:47.310Z,99942.81
2023-02-12T12:35:19.539Z,99955.44
2023-02-12T12:38:02.668Z,99966.06
2023-02-12T12:40:43.175Z,99955.63
2023-02-12T12:43:16.055Z,99975.47
2023-02-12T12:46:07.797Z,99975.78
2023-02-12T12:48:44.632Z,99983.53
2023-02-12T12:51:14.548Z,99983.63
2023-02-12T12:53:59.469Z,99982.75
2023-02-12T12:56:35.223Z,99991.41
2023-02-12T12:59:23.137Z,99999.91
2023-02-12T13:02:41.112Z,100002.38
2023-02-12T13:05:39.232Z,99996.13
2023-02-12T13:08:15.526Z,100002.31
2023-02-12T13:10:51.170Z,100016.38
2023-02-12T13:13:34.241Z,99998.97
2023-02-12T13:16:23.601Z,100015.38
2023-02-12T13:19:05.565Z,100013.72
2023-02-12T13:21:44.587Z,100039.72
2023-02-12T13:24:14.376Z,100038.31
2023-02-12T13:26:58.947Z,100056.81
2023-02-12T13:29:44.463Z,100045.00
2023-02-12T13:32:27.541Z,100052.09
2023-02-12T13:34:56.320Z,100057.69
2023-02-12T13:37:45.340Z,100053.31
2023-02-12T13:40:22.255Z,100011.06
2023-02-12T13:43:04.534Z,100074.19
2023-02-12T13:45:31.574Z,100069.28
2023-02-12T13:48:19.994Z,100079.69
2023-02-12T13:50:47.143Z,100080.72
2023-02-12T13:53:47.446Z,100070.09
2023-02-12T13:56:34.739Z,100075.06
2023-02-12T13:59:02.060Z,100087.38
2023-02-12T14:01:43.305Z,100092.75
2023-02-12T14:04:31.231Z,100079.09
2023-02-12T14:07:02.411Z,100098.16
2023-02-12T14:09:34.190Z,100080.31
2023-02-12T14:12:02.696Z,100068.72
2023-02-12T14:14:34.294Z,100095.81
2023-02-12T14:17:29.615Z,100097.31
2023-02-12T14:20:27.786Z,100102.41
2023-02-12T14:23:20.944Z,100086.59
2023-02-12T14:26:15.442Z,100115.13
2023-02-12T14:28:56.984Z,100109.91
2023-02-12T14:31:27.315Z,100127.47
2023-02-12T14:34:18.257Z,100124.97
2023-02-12T14:36:49.237Z,100127.38
2023-02-12T14:39:18.964Z,100136.00
2023-02-12T14:41:57.508Z,100138.97
2023-02-12T14:44:26.895Z,100149.34
2023-02-12T14:46:55.024Z,100152.38
2023-02-12T14:49:28.865Z,100154.72
2023-02-12T14:52:01.959Z,100146.09
2023-02-12T14:54:38.343Z,100163.75
2023-02-12T14:57:18.774Z,100148.50
2023-02-12T14:59:48.014Z,100171.13
2023-02-12T15:02:26.961Z,100164.91
2023-02-12T15:04:59.636Z,100150.28
2023-02-12T15:07:58.839Z,100178.03
2023-02-12T15:10:49.998Z,100184.84
2023-02-12T15:13:23.064Z,100194.47
2023-02-12T15:16:06.531Z,100192.84
2023-02-12T15:19:02.541Z,100204.81
2023-02-12T15:21:32.876Z,100199.00
2023-02-12T15:24:07.114Z,100209.50
2023-02-12T15:26:50.059Z,100216.38
2023-02-12T15:29:22.453Z,100229.31
2023-02-12T15:32:01.037Z,100223.34
2023-02-12T15:34:32.001Z,100224.19
2023-02-12T15:37:02.108Z,100213.50
2023-02-12T15:39:43.788Z,100233.97
2023-02-12T15:42:52.865Z,100232.56
2023-02-12T15:45:28.290Z,100233.16
2023-02-12T15:48:09.653Z,100217.56
2023-02-12T15:50:48.644Z,100239.88
2023-02-12T15:53:16.726Z,100235.75
2023-02-12T15:55:47.775Z,100246.69
2023-02-12T15:58:43.937Z,100236.25
2023-02-12T16:01:17.544Z,100238.19
2023-02-12T16:03:50.430Z,100238.25
2023-02-12T16:06:20.040Z,100236.50
2023-02-12T16:08:50.997Z,100236.88
2023-02-12T16:11:20.609Z,100238.44
2023-02-12T16:14:01.141Z,100232.25
2023-02-12T16:16:41.066Z,100242.06
2023-02-12T16:19:33.696Z,100247.75
2023-02-12T16:22:16.692Z,100249.66
2023-02-12T16:24:51.853Z,100257.38
2023-02-12T16:27:21.825Z,100240.13
2023-02-12T16:29:59.170Z,100257.97
2023-02-12T16:32:43.611Z,100252.47
2023-02-12T16:35:10.669Z,100265.03
2023-02-12T16:37:37.670Z,100266.22
2023-02-12T16:40:14.633Z,100260.00
2023-02-12T16:42:47.703Z,100269.06
2023-02-12T16:45:23.848Z,100266.00
2023-02-12T16:47:51.788Z,100264.97
2023-02-12T16:50:19.692Z,100265.63
2023-02-12T16:52:46.700Z,100274.63
2023-02-12T16:55:16.230Z,100280.25
2023-02-12T16:57:44.461Z,100274.25
2023-02-12T17:00:17.447Z,100275.34
2023-02-12T17:02:47.447Z,100272.34
2023-02-12T17:05:19.849Z,100284.69
2023-02-12T17:07:46.946Z,100276.44
2023-02-12T17:10:15.249Z,100279.25
2023-02-12T17:12:49.506Z,100280.31
2023-02-12T17:15:28.002Z,100278.94
2023-02-12T17:17:55.152Z,100267.06
2023-02-12T17:20:22.410Z,100251.50
2023-02-12T17:22:52.763Z,100279.91
2023-02-12T17:25:20.025Z,100275.56
2023-02-12T17:27:47.119Z,100286.72
2023-02-12T17:30:21.837Z,100269.81
2023-02-12T17:32:51.225Z,100279.91
2023-02-12T17:35:18.854Z,100290.22
2023-02-12T17:37:47.941Z,100286.25
2023-02-12T17:40:15.021Z,100277.13
2023-02-12T17:42:42.161Z,100290.56
2023-02-12T17:45:09.445Z,100288.66
2023-02-12T17:47:40.044Z,100268.53
2023-02-12T17:50:10.561Z,100279.09
2023-02-12T17:52:37.689Z,100259.66
2023-02-12T17:55:06.395Z,100273.75
2023-02-12T17:57:33.663Z,100269.84
2023-02-12T18:00:00.711Z,100277.09
2023-02-12T18:02:27.795Z,100282.19
2023-02-12T18:04:54.927Z,100282.78
2023-02-12T18:07:22.219Z,100262.53
2023-02-12T18:09:49.616Z,100292.38
2023-02-12T18:12:17.082Z,100282.47
2023-02-12T18:14:44.425Z,100286.38
2023-02-12T18:17:11.847Z,100291.06
2023-02-12T18:19:39.033Z,100295.69
2023-02-12T18:22:06.210Z,100299.78
2023-02-12T18:24:35.166Z,100290.31
2023-02-12T18:27:02.332Z,100295.31
2023-02-12T18:29:29.379Z,100299.81
2023-02-12T18:31:56.484Z,100270.63
2023-02-12T18:34:27.288Z,100294.91
2023-02-12T18:36:54.451Z,100275.00
2023-02-12T18:39:21.570Z,100277.75
2023-02-12T18:41:48.682Z,100293.38
2023-02-12T18:44:16.106Z,100301.84
2023-02-12T18:46:43.440Z,100304.94
2023-02-12T18:49:12.090Z,100310.34
2023-02-12T18:51:41.182Z,100303.16
2023-02-12T18:54:11.924Z,100305.81
2023-02-12T18:56:45.009Z,100306.13
2023-02-12T18:59:13.956Z,100316.13
2023-02-12T19:01:41.825Z,100313.59
2023-02-12T19:04:11.844Z,100305.31
2023-02-12T19:06:42.074Z,100309.03
2023-02-12T19:09:13.534Z,100299.31
2023-02-12T19:11:40.700Z,100309.22
2023-02-12T19:14:07.837Z,100311.56
2023-02-12T19:16:35.153Z,100312.41
2023-02-12T19:19:03.203Z,100318.00
2023-02-12T19:21:30.987Z,100322.81
2023-02-12T19:24:00.640Z,100308.44
2023-02-12T19:26:29.934Z,100319.59
2023-02-12T19:28:58.145Z,100324.59
2023-02-12T19:31:31.050Z,100329.28
2023-02-12T19:34:01.889Z,100321.38
2023-02-12T19:36:30.158Z,100326.66
2023-02-12T19:38:57.165Z,100324.75
2023-02-12T19:41:26.188Z,100320.41
2023-02-12T19:44:00.793Z,100316.22
2023-02-12T19:46:30.492Z,100323.31
2023-02-12T19:49:00.208Z,100320.44
2023-02-12T19:51:30.793Z,100319.09
2023-02-12T19:54:02.909Z,100317.47
2023-02-12T19:56:30.578Z,100307.78
2023-02-12T19:58:58.253Z,100304.78
2023-02-12T20:01:26.020Z,100290.81
2023-02-12T20:03:54.560Z,100298.34
2023-02-12T20:06:24.347Z,100294.75
2023-02-12T20:08:52.334Z,100288.41
2023-02-12T20:11:22.876Z,100294.91
2023-02-12T20:13:50.118Z,100299.31
2023-02-12T20:16:21.161Z,100307.53
2023-02-12T20:18:49.166Z,100299.56
2023-02-12T20:21:20.798Z,100294.53
2023-02-12T20:23:47.894Z,100291.13
2023-02-12T20:26:16.366Z,100284.38
2023-02-12T20:28:44.016Z,100281.53
2023-02-12T20:31:14.323Z,100275.09
2023-02-12T20:33:42.340Z,100283.84
2023-02-12T20:36:11.885Z,100262.28
2023-02-12T20:38:43.662Z,100265.69
2023-02-12T20:41:11.401Z,100253.28
2023-02-12T20:43:39.053Z,100269.41
2023-02-12T20:46:11.955Z,100243.09
2023-02-12T20:48:39.296Z,100271.22
2023-02-12T20:51:27.247Z,100267.97
2023-02-12T20:53:55.662Z,100258.69
2023-02-12T20:56:30.641Z,100272.13
2023-02-12T20:58:58.944Z,100274.97
2023-02-12T21:01:29.650Z,100281.81
2023-02-12T21:03:57.053Z,100270.06
2023-02-12T21:06:25.120Z,100268.75
2023-02-12T21:08:52.482Z,100257.84
2023-02-12T21:11:24.403Z,100258.03
2023-02-12T21:14:02.241Z,100268.16
2023-02-12T21:16:50.769Z,100274.59
2023-02-12T21:19:19.014Z,100262.38
2023-02-12T21:21:46.653Z,100264.47
2023-02-12T21:24:21.767Z,100259.59
2023-02-12T21:26:50.087Z,100250.19
2023-02-12T21:29:17.642Z,100249.56
2023-02-12T21:31:47.196Z,100247.28
2023-02-12T21:34:18.572Z,100248.88
2023-02-12T21:36:47.276Z,100252.22
2023-02-12T21:39:26.225Z,100256.84
2023-02-12T21:41:58.606Z,100251.69
2023-02-12T21:44:29.027Z,100248.19
2023-02-12T21:46:59.658Z,100234.00
2023-02-12T21:49:30.090Z,100247.34
2023-02-12T21:51:59.683Z,100230.66
2023-02-12T21:54:27.210Z,100257.84
2023-02-12T21:57:18.192Z,100249.13
2023-02-12T21:59:45.243Z,100240.13
2023-02-12T22:02:15.544Z,100240.47
2023-02-12T22:04:45.590Z,100238.44
2023-02-12T22:07:12.670Z,100234.19
2023-02-12T22:09:39.755Z,100233.81
2023-02-12T22:12:06.967Z,100228.00
2023-02-12T22:14:34.085Z,100238.19
2023-02-12T22:17:01.307Z,100232.44
2023-02-12T22:19:28.582Z,100228.19
2023-02-12T22:21:58.533Z,100227.34
2023-02-12T22:24:25.648Z,100215.19
2023-02-12T22:26:54.847Z,100218.53
2023-02-12T22:29:23.002Z,100210.25
2023-02-12T22:31:51.070Z,100218.88
2023-02-12T22:34:19.309Z,100207.41
2023-02-12T22:36:47.594Z,100199.22
2023-02-12T22:39:15.465Z,100196.91
2023-02-12T22:41:42.880Z,100194.84
2023-02-12T22:44:12.383Z,100216.41
2023-02-12T22:46:40.386Z,100211.38
2023-02-12T22:49:07.625Z,100200.88
2023-02-12T22:51:36.876Z,100210.47
2023-02-12T22:54:04.126Z,100208.09
2023-02-12T22:56:31.240Z,100203.44
2023-02-12T22:59:02.487Z,100210.41
2023-02-12T23:01:30.429Z,100215.13
2023-02-12T23:03:57.901Z,100206.72
2023-02-12T23:06:28.092Z,100216.38
2023-02-12T23:09:00.911Z,100207.38
2023-02-12T23:11:30.091Z,100210.00
2023-02-12T23:13:57.497Z,100211.13
2023-02-12T23:16:25.243Z,100205.34
2023-02-12T23:19:00.021Z,100209.28
2023-02-12T23:21:28.306Z,100207.84
2023-02-12T23:23:56.369Z,100204.38
2023-02-12T23:26:23.509Z,100195.06
2023-02-12T23:28:50.858Z,100195.63
2023-02-12T23:31:19.420Z,100199.13
2023-02-12T23:33:47.602Z,100190.28
2023-02-12T23:36:20.936Z,100198.06
2023-02-12T23:38:47.969Z,100193.31
2023-02-12T23:41:15.344Z,100188.22
2023-02-12T23:43:42.409Z,100186.31
2023-02-12T23:46:09.735Z,100182.59
2023-02-12T23:48:37.049Z,100188.34
2023-02-12T23:51:04.790Z,100179.00
2023-02-12T23:53:31.939Z,100167.88
2023-02-12T23:56:01.213Z,100147.25
2023-02-12T23:58:31.043Z,100159.09
